sensor_id;sensor_type;location;lat;lon;timestamp;temperature;humidity
4002;DHT22;2015;48.670;9.060;2023-04-25T00:00:43;8.40;99.90
4002;DHT22;2015;48.670;9.060;2023-04-25T00:03:15;8.30;99.90
4002;DHT22;2015;48.670;9.060;2023-04-25T00:05:47;8.30;99.90
4002;DHT22;2015;48.670;9.060;2023-04-25T00:08:20;8.20;99.90
4002;DHT22;2015;48.670;9.060;2023-04-25T00:10:52;8.20;99.90
4002;DHT22;2015;48.670;9.060;2023-04-25T00:13:24;8.10;99.90
4002;DHT22;2015;48.670;9.060;2023-04-25T00:15:57;8.10;99.90
4002;DHT22;2015;48.670;9.060;2023-04-25T00:18:29;8.10;99.90
4002;DHT22;2015;48.670;9.060;2023-04-25T00:21:01;8.00;99.90
4002;DHT22;2015;48.670;9.060;2023-04-25T00:23:34;8.00;99.90
4002;DHT22;2015;48.670;9.060;2023-04-25T00:26:07;8.00;99.90
4002;DHT22;2015;48.670;9.060;2023-04-25T00:28:39;8.00;99.90
4002;DHT22;2015;48.670;9.060;2023-04-25T00:31:11;8.00;99.90
4002;DHT22;2015;48.670;9.060;2023-04-25T00:33:43;8.00;99.90
4002;DHT22;2015;48.670;9.060;2023-04-25T00:36:15;8.00;99.90
4002;DHT22;2015;48.670;9.060;2023-04-25T00:38:47;8.10;99.90
4002;DHT22;2015;48.670;9.060;2023-04-25T00:41:19;8.20;99.90
4002;DHT22;2015;48.670;9.060;2023-04-25T00:43:52;8.20;99.90
4002;DHT22;2015;48.670;9.060;2023-04-25T00:46:25;8.30;99.90
4002;DHT22;2015;48.670;9.060;2023-04-25T00:48:57;8.30;99.90
4002;DHT22;2015;48.670;9.060;2023-04-25T00:51:29;8.20;99.90
4002;DHT22;2015;48.670;9.060;2023-04-25T00:54:02;8.20;99.90
4002;DHT22;2015;48.670;9.060;2023-04-25T00:56:34;8.20;99.90
4002;DHT22;2015;48.670;9.060;2023-04-25T00:59:06;8.20;99.90
4002;DHT22;2015;48.670;9.060;2023-04-25T01:01:39;8.20;99.90
4002;DHT22;2015;48.670;9.060;2023-04-25T01:04:11;8.20;99.90
4002;DHT22;2015;48.670;9.060;2023-04-25T01:06:43;8.10;99.90
4002;DHT22;2015;48.670;9.060;2023-04-25T01:09:15;8.10;99.90
4002;DHT22;2015;48.670;9.060;2023-04-25T01:11:47;8.10;99.90
4002;DHT22;2015;48.670;9.060;2023-04-25T01:14:20;8.20;99.90
4002;DHT22;2015;48.670;9.060;2023-04-25T01:16:51;8.10;99.90
4002;DHT22;2015;48.670;9.060;2023-04-25T01:19:25;8.10;99.90
4002;DHT22;2015;48.670;9.060;2023-04-25T01:21:57;8.10;99.90
4002;DHT22;2015;48.670;9.060;2023-04-25T01:24:29;7.90;99.90
4002;DHT22;2015;48.670;9.060;2023-04-25T01:27:02;7.80;99.90
4002;DHT22;2015;48.670;9.060;2023-04-25T01:29:35;7.70;99.90
4002;DHT22;2015;48.670;9.060;2023-04-25T01:32:07;7.60;99.90
4002;DHT22;2015;48.670;9.060;2023-04-25T01:34:40;7.60;99.90
4002;DHT22;2015;48.670;9.060;2023-04-25T01:37:11;7.50;99.90
4002;DHT22;2015;48.670;9.060;2023-04-25T01:39:44;7.40;99.90
4002;DHT22;2015;48.670;9.060;2023-04-25T01:42:16;7.40;99.90
4002;DHT22;2015;48.670;9.060;2023-04-25T01:44:48;7.30;99.90
4002;DHT22;2015;48.670;9.060;2023-04-25T01:47:19;7.30;99.90
4002;DHT22;2015;48.670;9.060;2023-04-25T01:49:51;7.20;99.90
4002;DHT22;2015;48.670;9.060;2023-04-25T01:52:23;7.20;99.90
4002;DHT22;2015;48.670;9.060;2023-04-25T01:54:57;7.20;99.90
4002;DHT22;2015;48.670;9.060;2023-04-25T01:57:29;7.10;99.90
4002;DHT22;2015;48.670;9.060;2023-04-25T02:00:04;7.10;99.90
4002;DHT22;2015;48.670;9.060;2023-04-25T02:02:38;7.10;99.90
4002;DHT22;2015;48.670;9.060;2023-04-25T02:05:10;7.10;99.90
4002;DHT22;2015;48.670;9.060;2023-04-25T02:07:42;7.10;99.90
4002;DHT22;2015;48.670;9.060;2023-04-25T02:10:14;7.20;99.90
4002;DHT22;2015;48.670;9.060;2023-04-25T02:12:46;7.30;99.90
4002;DHT22;2015;48.670;9.060;2023-04-25T02:15:18;7.30;99.90
4002;DHT22;2015;48.670;9.060;2023-04-25T02:17:50;7.30;99.90
4002;DHT22;2015;48.670;9.060;2023-04-25T02:20:25;7.40;99.90
4002;DHT22;2015;48.670;9.060;2023-04-25T02:22:57;7.30;99.90
4002;DHT22;2015;48.670;9.060;2023-04-25T02:25:29;7.20;99.90
4002;DHT22;2015;48.670;9.060;2023-04-25T02:28:01;7.20;99.90
4002;DHT22;2015;48.670;9.060;2023-04-25T02:30:33;7.20;99.90
4002;DHT22;2015;48.670;9.060;2023-04-25T02:33:05;7.20;99.90
4002;DHT22;2015;48.670;9.060;2023-04-25T02:35:36;7.10;99.90
4002;DHT22;2015;48.670;9.060;2023-04-25T02:38:08;7.20;99.90
4002;DHT22;2015;48.670;9.060;2023-04-25T02:40:40;7.10;99.90
4002;DHT22;2015;48.670;9.060;2023-04-25T02:43:12;7.10;99.90
4002;DHT22;2015;48.670;9.060;2023-04-25T02:45:44;7.00;99.90
4002;DHT22;2015;48.670;9.060;2023-04-25T02:48:16;6.90;99.90
4002;DHT22;2015;48.670;9.060;2023-04-25T02:50:47;6.90;99.90
4002;DHT22;2015;48.670;9.060;2023-04-25T02:53:19;6.90;99.90
4002;DHT22;2015;48.670;9.060;2023-04-25T02:55:51;6.90;99.90
4002;DHT22;2015;48.670;9.060;2023-04-25T02:58:24;6.90;99.90
4002;DHT22;2015;48.670;9.060;2023-04-25T03:00:56;6.90;99.90
4002;DHT22;2015;48.670;9.060;2023-04-25T03:03:28;6.90;99.90
4002;DHT22;2015;48.670;9.060;2023-04-25T03:06:00;6.90;99.90
4002;DHT22;2015;48.670;9.060;2023-04-25T03:08:31;6.90;99.90
4002;DHT22;2015;48.670;9.060;2023-04-25T03:11:05;7.00;99.90
4002;DHT22;2015;48.670;9.060;2023-04-25T03:13:37;7.00;99.90
4002;DHT22;2015;48.670;9.060;2023-04-25T03:16:09;7.10;99.90
4002;DHT22;2015;48.670;9.060;2023-04-25T03:18:41;7.20;99.90
4002;DHT22;2015;48.670;9.060;2023-04-25T03:21:13;7.20;99.90
4002;DHT22;2015;48.670;9.060;2023-04-25T03:23:45;7.20;99.90
4002;DHT22;2015;48.670;9.060;2023-04-25T03:26:17;7.20;99.90
4002;DHT22;2015;48.670;9.060;2023-04-25T03:28:48;7.20;99.90
4002;DHT22;2015;48.670;9.060;2023-04-25T03:31:20;7.30;99.90
4002;DHT22;2015;48.670;9.060;2023-04-25T03:33:53;7.30;99.90
4002;DHT22;2015;48.670;9.060;2023-04-25T03:36:25;7.30;99.90
4002;DHT22;2015;48.670;9.060;2023-04-25T03:38:56;7.40;99.90
4002;DHT22;2015;48.670;9.060;2023-04-25T03:41:28;7.40;99.90
4002;DHT22;2015;48.670;9.060;2023-04-25T03:44:01;7.40;99.90
4002;DHT22;2015;48.670;9.060;2023-04-25T03:46:32;7.40;99.90
4002;DHT22;2015;48.670;9.060;2023-04-25T03:49:04;7.30;99.90
4002;DHT22;2015;48.670;9.060;2023-04-25T03:51:36;7.20;99.90
4002;DHT22;2015;48.670;9.060;2023-04-25T03:54:08;7.10;99.90
4002;DHT22;2015;48.670;9.060;2023-04-25T03:56:40;7.10;99.90
4002;DHT22;2015;48.670;9.060;2023-04-25T03:59:11;7.20;99.90
4002;DHT22;2015;48.670;9.060;2023-04-25T04:01:43;7.10;99.90
4002;DHT22;2015;48.670;9.060;2023-04-25T04:04:15;7.10;99.90
4002;DHT22;2015;48.670;9.060;2023-04-25T04:06:48;7.10;99.90
4002;DHT22;2015;48.670;9.060;2023-04-25T04:09:20;7.00;99.90
4002;DHT22;2015;48.670;9.060;2023-04-25T04:11:52;7.00;99.90
4002;DHT22;2015;48.670;9.060;2023-04-25T04:14:23;7.00;99.90
4002;DHT22;2015;48.670;9.060;2023-04-25T04:16:55;7.00;99.90
4002;DHT22;2015;48.670;9.060;2023-04-25T04:19:27;7.10;99.90
4002;DHT22;2015;48.670;9.060;2023-04-25T04:21:58;7.20;99.90
4002;DHT22;2015;48.670;9.060;2023-04-25T04:24:30;7.20;99.90
4002;DHT22;2015;48.670;9.060;2023-04-25T04:27:02;7.20;99.90
4002;DHT22;2015;48.670;9.060;2023-04-25T04:29:34;7.10;99.90
4002;DHT22;2015;48.670;9.060;2023-04-25T04:32:06;7.00;99.90
4002;DHT22;2015;48.670;9.060;2023-04-25T04:34:40;7.00;99.90
4002;DHT22;2015;48.670;9.060;2023-04-25T04:37:12;6.90;99.90
4002;DHT22;2015;48.670;9.060;2023-04-25T04:39:45;6.80;99.90
4002;DHT22;2015;48.670;9.060;2023-04-25T04:42:16;6.70;99.90
4002;DHT22;2015;48.670;9.060;2023-04-25T04:44:48;6.70;99.90
4002;DHT22;2015;48.670;9.060;2023-04-25T04:47:20;6.70;99.90
4002;DHT22;2015;48.670;9.060;2023-04-25T04:49:52;6.70;99.90
4002;DHT22;2015;48.670;9.060;2023-04-25T04:52:24;6.90;99.90
4002;DHT22;2015;48.670;9.060;2023-04-25T04:54:55;6.90;99.90
4002;DHT22;2015;48.670;9.060;2023-04-25T04:57:28;7.00;99.90
4002;DHT22;2015;48.670;9.060;2023-04-25T05:00:00;7.00;99.90
4002;DHT22;2015;48.670;9.060;2023-04-25T05:02:32;7.10;99.90
4002;DHT22;2015;48.670;9.060;2023-04-25T05:05:05;7.20;99.90
4002;DHT22;2015;48.670;9.060;2023-04-25T05:07:37;7.30;99.90
4002;DHT22;2015;48.670;9.060;2023-04-25T05:10:09;7.40;99.90
4002;DHT22;2015;48.670;9.060;2023-04-25T05:12:41;7.50;99.90
4002;DHT22;2015;48.670;9.060;2023-04-25T05:15:13;7.60;99.90
4002;DHT22;2015;48.670;9.060;2023-04-25T05:17:45;7.60;99.90
4002;DHT22;2015;48.670;9.060;2023-04-25T05:20:17;7.60;99.90
4002;DHT22;2015;48.670;9.060;2023-04-25T05:22:50;7.60;99.90
4002;DHT22;2015;48.670;9.060;2023-04-25T05:25:22;7.60;99.90
4002;DHT22;2015;48.670;9.060;2023-04-25T05:27:54;7.60;99.90
4002;DHT22;2015;48.670;9.060;2023-04-25T05:30:26;7.60;99.90
4002;DHT22;2015;48.670;9.060;2023-04-25T05:32:57;7.60;99.90
4002;DHT22;2015;48.670;9.060;2023-04-25T05:35:29;7.60;99.90
4002;DHT22;2015;48.670;9.060;2023-04-25T05:38:01;7.60;99.90
4002;DHT22;2015;48.670;9.060;2023-04-25T05:40:33;7.60;99.90
4002;DHT22;2015;48.670;9.060;2023-04-25T05:43:05;7.60;99.90
4002;DHT22;2015;48.670;9.060;2023-04-25T05:45:37;7.60;99.90
4002;DHT22;2015;48.670;9.060;2023-04-25T05:48:08;7.70;99.90
4002;DHT22;2015;48.670;9.060;2023-04-25T05:50:40;7.70;99.90
4002;DHT22;2015;48.670;9.060;2023-04-25T05:53:12;7.70;99.90
4002;DHT22;2015;48.670;9.060;2023-04-25T05:55:44;7.70;99.90
4002;DHT22;2015;48.670;9.060;2023-04-25T05:58:16;7.80;99.90
4002;DHT22;2015;48.670;9.060;2023-04-25T06:00:47;7.80;99.90
4002;DHT22;2015;48.670;9.060;2023-04-25T06:03:19;7.80;99.90
4002;DHT22;2015;48.670;9.060;2023-04-25T06:05:52;7.90;99.90
4002;DHT22;2015;48.670;9.060;2023-04-25T06:08:24;8.00;99.90
4002;DHT22;2015;48.670;9.060;2023-04-25T06:10:55;8.20;99.90
4002;DHT22;2015;48.670;9.060;2023-04-25T06:13:27;8.40;99.90
4002;DHT22;2015;48.670;9.060;2023-04-25T06:15:59;8.50;99.90
4002;DHT22;2015;48.670;9.060;2023-04-25T06:18:31;8.50;99.90
4002;DHT22;2015;48.670;9.060;2023-04-25T06:21:03;8.50;99.90
4002;DHT22;2015;48.670;9.060;2023-04-25T06:23:34;8.60;99.90
4002;DHT22;2015;48.670;9.060;2023-04-25T06:26:06;8.60;99.90
4002;DHT22;2015;48.670;9.060;2023-04-25T06:28:38;8.60;99.90
4002;DHT22;2015;48.670;9.060;2023-04-25T06:31:10;8.50;99.90
4002;DHT22;2015;48.670;9.060;2023-04-25T06:33:42;8.40;99.90
4002;DHT22;2015;48.670;9.060;2023-04-25T06:36:14;8.20;99.90
4002;DHT22;2015;48.670;9.060;2023-04-25T06:38:46;8.20;99.90
4002;DHT22;2015;48.670;9.060;2023-04-25T06:41:18;8.20;99.90
4002;DHT22;2015;48.670;9.060;2023-04-25T06:43:50;8.10;99.90
4002;DHT22;2015;48.670;9.060;2023-04-25T06:46:22;8.10;99.90
4002;DHT22;2015;48.670;9.060;2023-04-25T06:48:53;8.10;99.90
4002;DHT22;2015;48.670;9.060;2023-04-25T06:51:25;8.00;99.90
4002;DHT22;2015;48.670;9.060;2023-04-25T06:53:59;8.00;99.90
4002;DHT22;2015;48.670;9.060;2023-04-25T06:56:31;8.00;99.90
4002;DHT22;2015;48.670;9.060;2023-04-25T06:59:03;8.10;99.90
4002;DHT22;2015;48.670;9.060;2023-04-25T07:01:35;8.10;99.90
4002;DHT22;2015;48.670;9.060;2023-04-25T07:04:07;8.10;99.90
4002;DHT22;2015;48.670;9.060;2023-04-25T07:06:39;8.10;99.90
4002;DHT22;2015;48.670;9.060;2023-04-25T07:09:14;8.00;99.90
4002;DHT22;2015;48.670;9.060;2023-04-25T07:11:46;7.90;99.90
4002;DHT22;2015;48.670;9.060;2023-04-25T07:14:17;7.90;99.90
4002;DHT22;2015;48.670;9.060;2023-04-25T07:16:49;7.90;99.90
4002;DHT22;2015;48.670;9.060;2023-04-25T07:19:21;7.90;99.90
4002;DHT22;2015;48.670;9.060;2023-04-25T07:21:53;8.00;99.90
4002;DHT22;2015;48.670;9.060;2023-04-25T07:24:25;7.90;99.90
4002;DHT22;2015;48.670;9.060;2023-04-25T07:26:57;7.90;99.90
4002;DHT22;2015;48.670;9.060;2023-04-25T07:29:29;7.80;99.90
4002;DHT22;2015;48.670;9.060;2023-04-25T07:32:02;7.80;99.90
4002;DHT22;2015;48.670;9.060;2023-04-25T07:34:34;7.80;99.90
4002;DHT22;2015;48.670;9.060;2023-04-25T07:37:08;7.90;99.90
4002;DHT22;2015;48.670;9.060;2023-04-25T07:39:40;7.90;99.90
4002;DHT22;2015;48.670;9.060;2023-04-25T07:42:13;7.90;99.90
4002;DHT22;2015;48.670;9.060;2023-04-25T07:44:45;8.00;99.90
4002;DHT22;2015;48.670;9.060;2023-04-25T07:47:17;7.90;99.90
4002;DHT22;2015;48.670;9.060;2023-04-25T07:49:50;7.80;99.90
4002;DHT22;2015;48.670;9.060;2023-04-25T07:52:22;7.80;99.90
4002;DHT22;2015;48.670;9.060;2023-04-25T07:54:54;7.90;99.90
4002;DHT22;2015;48.670;9.060;2023-04-25T07:57:26;7.90;99.90
4002;DHT22;2015;48.670;9.060;2023-04-25T07:59:58;7.90;99.90
4002;DHT22;2015;48.670;9.060;2023-04-25T08:02:29;7.80;99.90
4002;DHT22;2015;48.670;9.060;2023-04-25T08:05:02;7.80;99.90
4002;DHT22;2015;48.670;9.060;2023-04-25T08:07:34;7.70;99.90
4002;DHT22;2015;48.670;9.060;2023-04-25T08:10:07;7.70;99.90
4002;DHT22;2015;48.670;9.060;2023-04-25T08:12:39;7.60;99.90
4002;DHT22;2015;48.670;9.060;2023-04-25T08:15:11;7.60;99.90
4002;DHT22;2015;48.670;9.060;2023-04-25T08:17:45;7.60;99.90
4002;DHT22;2015;48.670;9.060;2023-04-25T08:20:17;7.60;99.90
4002;DHT22;2015;48.670;9.060;2023-04-25T08:22:49;7.50;99.90
4002;DHT22;2015;48.670;9.060;2023-04-25T08:25:21;7.50;99.90
4002;DHT22;2015;48.670;9.060;2023-04-25T08:27:52;7.50;99.90
4002;DHT22;2015;48.670;9.060;2023-04-25T08:30:24;7.40;99.90
4002;DHT22;2015;48.670;9.060;2023-04-25T08:32:56;7.40;99.90
4002;DHT22;2015;48.670;9.060;2023-04-25T08:35:28;7.30;99.90
4002;DHT22;2015;48.670;9.060;2023-04-25T08:38:00;7.30;99.90
4002;DHT22;2015;48.670;9.060;2023-04-25T08:40:37;7.30;99.90
4002;DHT22;2015;48.670;9.060;2023-04-25T08:43:09;7.30;99.90
4002;DHT22;2015;48.670;9.060;2023-04-25T08:45:44;7.30;99.90
4002;DHT22;2015;48.670;9.060;2023-04-25T08:48:18;7.30;99.90
4002;DHT22;2015;48.670;9.060;2023-04-25T08:50:53;7.30;99.90
4002;DHT22;2015;48.670;9.060;2023-04-25T08:53:31;7.30;99.90
4002;DHT22;2015;48.670;9.060;2023-04-25T08:56:05;7.30;99.90
4002;DHT22;2015;48.670;9.060;2023-04-25T08:58:38;7.40;99.90
4002;DHT22;2015;48.670;9.060;2023-04-25T09:01:11;7.50;99.90
4002;DHT22;2015;48.670;9.060;2023-04-25T09:03:44;7.60;99.90
4002;DHT22;2015;48.670;9.060;2023-04-25T09:06:16;7.60;99.90
4002;DHT22;2015;48.670;9.060;2023-04-25T09:08:50;7.60;99.90
4002;DHT22;2015;48.670;9.060;2023-04-25T09:11:21;7.60;99.90
4002;DHT22;2015;48.670;9.060;2023-04-25T09:14:19;7.60;99.90
4002;DHT22;2015;48.670;9.060;2023-04-25T09:19:36;7.60;99.90
4002;DHT22;2015;48.670;9.060;2023-04-25T09:22:12;7.60;99.90
4002;DHT22;2015;48.670;9.060;2023-04-25T09:24:45;7.60;99.90
4002;DHT22;2015;48.670;9.060;2023-04-25T09:27:21;7.50;99.90
4002;DHT22;2015;48.670;9.060;2023-04-25T09:29:59;7.50;99.90
4002;DHT22;2015;48.670;9.060;2023-04-25T09:32:33;7.60;99.90
4002;DHT22;2015;48.670;9.060;2023-04-25T09:35:05;7.50;99.90
4002;DHT22;2015;48.670;9.060;2023-04-25T09:37:37;7.40;99.90
4002;DHT22;2015;48.670;9.060;2023-04-25T09:40:12;7.40;99.90
4002;DHT22;2015;48.670;9.060;2023-04-25T09:42:44;7.30;99.90
4002;DHT22;2015;48.670;9.060;2023-04-25T09:45:15;7.30;99.90
4002;DHT22;2015;48.670;9.060;2023-04-25T09:47:47;7.20;99.90
4002;DHT22;2015;48.670;9.060;2023-04-25T09:50:19;7.10;99.90
4002;DHT22;2015;48.670;9.060;2023-04-25T09:53:04;7.10;99.90
4002;DHT22;2015;48.670;9.060;2023-04-25T09:55:39;7.10;99.90
4002;DHT22;2015;48.670;9.060;2023-04-25T09:58:12;7.10;99.90
4002;DHT22;2015;48.670;9.060;2023-04-25T10:00:45;6.90;99.90
4002;DHT22;2015;48.670;9.060;2023-04-25T10:03:20;6.80;99.90
4002;DHT22;2015;48.670;9.060;2023-04-25T10:05:55;6.70;99.90
4002;DHT22;2015;48.670;9.060;2023-04-25T10:08:32;6.70;99.90
4002;DHT22;2015;48.670;9.060;2023-04-25T10:11:06;6.70;99.90
4002;DHT22;2015;48.670;9.060;2023-04-25T10:13:38;6.80;99.90
4002;DHT22;2015;48.670;9.060;2023-04-25T10:16:10;6.80;99.90
4002;DHT22;2015;48.670;9.060;2023-04-25T10:18:43;6.70;99.90
4002;DHT22;2015;48.670;9.060;2023-04-25T10:21:16;6.80;99.90
4002;DHT22;2015;48.670;9.060;2023-04-25T10:23:48;6.90;99.90
4002;DHT22;2015;48.670;9.060;2023-04-25T10:26:20;6.90;99.90
4002;DHT22;2015;48.670;9.060;2023-04-25T10:28:58;7.00;99.90
4002;DHT22;2015;48.670;9.060;2023-04-25T10:31:30;7.00;99.90
4002;DHT22;2015;48.670;9.060;2023-04-25T10:34:02;7.00;99.90
4002;DHT22;2015;48.670;9.060;2023-04-25T10:36:36;7.00;99.90
4002;DHT22;2015;48.670;9.060;2023-04-25T10:39:09;7.00;99.90
4002;DHT22;2015;48.670;9.060;2023-04-25T10:41:57;7.10;99.90
4002;DHT22;2015;48.670;9.060;2023-04-25T10:44:30;7.10;99.90
4002;DHT22;2015;48.670;9.060;2023-04-25T10:47:02;7.30;99.90
4002;DHT22;2015;48.670;9.060;2023-04-25T10:49:41;7.30;99.90
4002;DHT22;2015;48.670;9.060;2023-04-25T10:54:56;7.30;99.90
4002;DHT22;2015;48.670;9.060;2023-04-25T10:57:39;7.40;99.90
4002;DHT22;2015;48.670;9.060;2023-04-25T11:00:12;7.40;99.90
4002;DHT22;2015;48.670;9.060;2023-04-25T11:02:58;7.40;99.90
4002;DHT22;2015;48.670;9.060;2023-04-25T11:05:34;7.50;99.90
4002;DHT22;2015;48.670;9.060;2023-04-25T11:08:27;7.60;99.90
4002;DHT22;2015;48.670;9.060;2023-04-25T11:11:05;7.60;99.90
4002;DHT22;2015;48.670;9.060;2023-04-25T11:13:37;7.80;99.90
4002;DHT22;2015;48.670;9.060;2023-04-25T11:16:08;8.00;99.90
4002;DHT22;2015;48.670;9.060;2023-04-25T11:18:44;8.00;99.90
4002;DHT22;2015;48.670;9.060;2023-04-25T11:21:16;8.10;99.90
4002;DHT22;2015;48.670;9.060;2023-04-25T11:23:48;7.80;99.90
4002;DHT22;2015;48.670;9.060;2023-04-25T11:26:20;7.90;99.90
4002;DHT22;2015;48.670;9.060;2023-04-25T11:28:57;8.00;99.90
4002;DHT22;2015;48.670;9.060;2023-04-25T11:31:31;7.90;99.90
4002;DHT22;2015;48.670;9.060;2023-04-25T11:34:02;8.10;99.90
4002;DHT22;2015;48.670;9.060;2023-04-25T11:36:36;8.00;99.90
4002;DHT22;2015;48.670;9.060;2023-04-25T11:39:09;7.90;99.90
4002;DHT22;2015;48.670;9.060;2023-04-25T11:41:41;7.80;99.90
4002;DHT22;2015;48.670;9.060;2023-04-25T11:44:17;7.70;99.90
4002;DHT22;2015;48.670;9.060;2023-04-25T11:46:49;7.70;99.90
4002;DHT22;2015;48.670;9.060;2023-04-25T11:49:21;7.70;99.90
4002;DHT22;2015;48.670;9.060;2023-04-25T11:51:53;7.90;99.90
4002;DHT22;2015;48.670;9.060;2023-04-25T11:54:25;8.00;99.90
4002;DHT22;2015;48.670;9.060;2023-04-25T11:56:57;8.00;99.90
4002;DHT22;2015;48.670;9.060;2023-04-25T11:59:29;7.90;99.90
4002;DHT22;2015;48.670;9.060;2023-04-25T12:02:01;7.90;99.90
4002;DHT22;2015;48.670;9.060;2023-04-25T12:04:33;8.20;99.90
4002;DHT22;2015;48.670;9.060;2023-04-25T12:07:09;8.30;99.90
4002;DHT22;2015;48.670;9.060;2023-04-25T12:09:41;8.40;99.90
4002;DHT22;2015;48.670;9.060;2023-04-25T12:12:13;8.50;99.90
4002;DHT22;2015;48.670;9.060;2023-04-25T12:14:47;8.30;99.90
4002;DHT22;2015;48.670;9.060;2023-04-25T12:17:22;8.20;99.90
4002;DHT22;2015;48.670;9.060;2023-04-25T12:19:54;8.20;99.90
4002;DHT22;2015;48.670;9.060;2023-04-25T12:22:26;8.20;99.90
4002;DHT22;2015;48.670;9.060;2023-04-25T12:24:58;8.20;99.90
4002;DHT22;2015;48.670;9.060;2023-04-25T12:27:31;8.10;99.90
4002;DHT22;2015;48.670;9.060;2023-04-25T12:30:03;8.20;99.90
4002;DHT22;2015;48.670;9.060;2023-04-25T12:32:36;8.10;99.90
4002;DHT22;2015;48.670;9.060;2023-04-25T12:35:08;8.20;99.90
4002;DHT22;2015;48.670;9.060;2023-04-25T12:37:40;8.40;99.90
4002;DHT22;2015;48.670;9.060;2023-04-25T12:40:12;8.60;99.90
4002;DHT22;2015;48.670;9.060;2023-04-25T12:42:44;8.70;99.90
4002;DHT22;2015;48.670;9.060;2023-04-25T12:45:16;8.50;99.90
4002;DHT22;2015;48.670;9.060;2023-04-25T12:47:48;8.50;99.90
4002;DHT22;2015;48.670;9.060;2023-04-25T12:50:19;8.50;99.90
4002;DHT22;2015;48.670;9.060;2023-04-25T12:52:51;8.60;99.90
4002;DHT22;2015;48.670;9.060;2023-04-25T12:55:23;8.60;99.90
4002;DHT22;2015;48.670;9.060;2023-04-25T12:57:55;8.60;99.90
4002;DHT22;2015;48.670;9.060;2023-04-25T13:00:27;8.60;99.90
4002;DHT22;2015;48.670;9.060;2023-04-25T13:02:59;8.60;99.90
4002;DHT22;2015;48.670;9.060;2023-04-25T13:05:31;8.70;99.90
4002;DHT22;2015;48.670;9.060;2023-04-25T13:08:03;8.90;99.90
4002;DHT22;2015;48.670;9.060;2023-04-25T13:10:35;9.10;99.90
4002;DHT22;2015;48.670;9.060;2023-04-25T13:13:09;9.40;99.90
4002;DHT22;2015;48.670;9.060;2023-04-25T13:15:41;9.40;99.90
4002;DHT22;2015;48.670;9.060;2023-04-25T13:18:15;9.40;99.90
4002;DHT22;2015;48.670;9.060;2023-04-25T13:20:47;9.50;99.90
4002;DHT22;2015;48.670;9.060;2023-04-25T13:23:19;9.60;99.90
4002;DHT22;2015;48.670;9.060;2023-04-25T13:25:52;9.70;99.90
4002;DHT22;2015;48.670;9.060;2023-04-25T13:28:24;9.80;99.90
4002;DHT22;2015;48.670;9.060;2023-04-25T13:30:56;9.60;99.90
4002;DHT22;2015;48.670;9.060;2023-04-25T13:33:28;9.80;99.90
4002;DHT22;2015;48.670;9.060;2023-04-25T13:36:00;9.80;99.90
4002;DHT22;2015;48.670;9.060;2023-04-25T13:38:32;10.00;99.90
4002;DHT22;2015;48.670;9.060;2023-04-25T13:41:04;10.20;99.90
4002;DHT22;2015;48.670;9.060;2023-04-25T13:43:38;10.10;99.90
4002;DHT22;2015;48.670;9.060;2023-04-25T13:46:10;10.10;99.90
4002;DHT22;2015;48.670;9.060;2023-04-25T13:49:04;10.30;99.90
4002;DHT22;2015;48.670;9.060;2023-04-25T13:51:43;10.50;99.90
4002;DHT22;2015;48.670;9.060;2023-04-25T13:54:15;10.50;99.90
4002;DHT22;2015;48.670;9.060;2023-04-25T13:56:47;10.10;99.90
4002;DHT22;2015;48.670;9.060;2023-04-25T13:59:20;10.00;99.90
4002;DHT22;2015;48.670;9.060;2023-04-25T14:01:52;10.00;99.90
4002;DHT22;2015;48.670;9.060;2023-04-25T14:04:24;10.00;99.90
4002;DHT22;2015;48.670;9.060;2023-04-25T14:06:56;9.80;99.90
4002;DHT22;2015;48.670;9.060;2023-04-25T14:09:28;10.00;99.90
4002;DHT22;2015;48.670;9.060;2023-04-25T14:12:00;10.10;99.90
4002;DHT22;2015;48.670;9.060;2023-04-25T14:14:33;10.30;99.90
4002;DHT22;2015;48.670;9.060;2023-04-25T14:17:05;10.60;99.90
4002;DHT22;2015;48.670;9.060;2023-04-25T14:19:38;10.40;99.90
4002;DHT22;2015;48.670;9.060;2023-04-25T14:22:14;10.40;99.90
4002;DHT22;2015;48.670;9.060;2023-04-25T14:24:47;10.50;99.90
4002;DHT22;2015;48.670;9.060;2023-04-25T14:27:18;10.30;99.90
4002;DHT22;2015;48.670;9.060;2023-04-25T14:29:50;10.10;99.90
4002;DHT22;2015;48.670;9.060;2023-04-25T14:32:22;10.00;99.90
4002;DHT22;2015;48.670;9.060;2023-04-25T14:34:54;9.90;99.90
4002;DHT22;2015;48.670;9.060;2023-04-25T14:37:25;10.00;99.90
4002;DHT22;2015;48.670;9.060;2023-04-25T14:39:57;10.20;99.90
4002;DHT22;2015;48.670;9.060;2023-04-25T14:42:29;10.10;99.90
4002;DHT22;2015;48.670;9.060;2023-04-25T14:45:02;9.90;99.90
4002;DHT22;2015;48.670;9.060;2023-04-25T14:47:38;9.80;99.90
4002;DHT22;2015;48.670;9.060;2023-04-25T14:50:10;9.80;99.90
4002;DHT22;2015;48.670;9.060;2023-04-25T14:52:42;10.00;99.90
4002;DHT22;2015;48.670;9.060;2023-04-25T14:55:14;9.80;99.90
4002;DHT22;2015;48.670;9.060;2023-04-25T14:57:46;9.90;99.90
4002;DHT22;2015;48.670;9.060;2023-04-25T15:00:18;9.90;99.90
4002;DHT22;2015;48.670;9.060;2023-04-25T15:02:52;9.90;99.90
4002;DHT22;2015;48.670;9.060;2023-04-25T15:05:24;9.90;99.90
4002;DHT22;2015;48.670;9.060;2023-04-25T15:07:56;10.00;99.90
4002;DHT22;2015;48.670;9.060;2023-04-25T15:10:29;10.10;99.90
4002;DHT22;2015;48.670;9.060;2023-04-25T15:13:00;10.40;99.90
4002;DHT22;2015;48.670;9.060;2023-04-25T15:15:32;10.50;99.90
4002;DHT22;2015;48.670;9.060;2023-04-25T15:18:04;10.50;99.90
4002;DHT22;2015;48.670;9.060;2023-04-25T15:20:36;10.60;99.90
4002;DHT22;2015;48.670;9.060;2023-04-25T15:23:08;10.80;99.90
4002;DHT22;2015;48.670;9.060;2023-04-25T15:25:40;10.70;99.90
4002;DHT22;2015;48.670;9.060;2023-04-25T15:28:12;10.50;99.90
4002;DHT22;2015;48.670;9.060;2023-04-25T15:30:47;10.40;99.90
4002;DHT22;2015;48.670;9.060;2023-04-25T15:33:19;10.30;99.90
4002;DHT22;2015;48.670;9.060;2023-04-25T15:35:51;10.40;99.90
4002;DHT22;2015;48.670;9.060;2023-04-25T15:38:24;10.30;99.90
4002;DHT22;2015;48.670;9.060;2023-04-25T15:40:55;10.10;99.90
4002;DHT22;2015;48.670;9.060;2023-04-25T15:43:27;9.90;99.90
4002;DHT22;2015;48.670;9.060;2023-04-25T15:45:59;10.00;99.90
4002;DHT22;2015;48.670;9.060;2023-04-25T15:48:32;9.90;99.90
4002;DHT22;2015;48.670;9.060;2023-04-25T15:51:04;9.80;99.90
4002;DHT22;2015;48.670;9.060;2023-04-25T15:53:36;9.80;99.90
4002;DHT22;2015;48.670;9.060;2023-04-25T15:56:08;9.90;99.90
4002;DHT22;2015;48.670;9.060;2023-04-25T15:58:40;10.10;99.90
4002;DHT22;2015;48.670;9.060;2023-04-25T16:01:13;10.30;99.90
4002;DHT22;2015;48.670;9.060;2023-04-25T16:03:44;10.30;99.90
4002;DHT22;2015;48.670;9.060;2023-04-25T16:06:17;10.20;99.90
4002;DHT22;2015;48.670;9.060;2023-04-25T16:08:49;9.90;99.90
4002;DHT22;2015;48.670;9.060;2023-04-25T16:11:22;9.90;99.90
4002;DHT22;2015;48.670;9.060;2023-04-25T16:13:54;10.00;99.90
4002;DHT22;2015;48.670;9.060;2023-04-25T16:16:26;10.10;99.90
4002;DHT22;2015;48.670;9.060;2023-04-25T16:18:58;10.20;99.90
4002;DHT22;2015;48.670;9.060;2023-04-25T16:21:30;10.30;99.90
4002;DHT22;2015;48.670;9.060;2023-04-25T16:24:02;10.30;99.90
4002;DHT22;2015;48.670;9.060;2023-04-25T16:26:35;10.30;99.90
4002;DHT22;2015;48.670;9.060;2023-04-25T16:29:07;10.20;99.90
4002;DHT22;2015;48.670;9.060;2023-04-25T16:31:39;10.10;99.90
4002;DHT22;2015;48.670;9.060;2023-04-25T16:34:13;10.10;99.90
4002;DHT22;2015;48.670;9.060;2023-04-25T16:36:45;10.10;99.90
4002;DHT22;2015;48.670;9.060;2023-04-25T16:39:17;10.00;99.90
4002;DHT22;2015;48.670;9.060;2023-04-25T16:41:49;9.90;99.90
4002;DHT22;2015;48.670;9.060;2023-04-25T16:44:21;10.00;99.90
4002;DHT22;2015;48.670;9.060;2023-04-25T16:46:53;10.10;99.90
4002;DHT22;2015;48.670;9.060;2023-04-25T16:49:25;10.10;99.90
4002;DHT22;2015;48.670;9.060;2023-04-25T16:51:57;9.90;99.90
4002;DHT22;2015;48.670;9.060;2023-04-25T16:54:29;9.90;99.90